createdAt,value
2018-12-11T00:06:22.953Z,15.87
2018-12-11T00:16:27.157Z,13.57
2018-12-11T00:26:32.251Z,15.07
2018-12-11T00:36:36.417Z,12.07
2018-12-11T00:46:40.491Z,14.23
2018-12-11T00:56:44.677Z,12.30
2018-12-11T01:06:49.465Z,14.37
2018-12-11T01:16:53.633Z,14.77
2018-12-11T01:26:57.859Z,15.17
2018-12-11T01:37:01.922Z,15.53
2018-12-11T01:47:06.045Z,11.33
2018-12-11T01:57:10.150Z,15.70
2018-12-11T02:07:14.223Z,13.43
2018-12-11T02:17:18.303Z,13.00
2018-12-11T02:27:22.619Z,10.20
2018-12-11T02:37:26.904Z,16.27
2018-12-11T02:47:31.004Z,15.50
2018-12-11T02:57:35.137Z,20.47
2018-12-11T03:07:39.239Z,18.27
2018-12-11T03:17:43.366Z,18.70
2018-12-11T03:27:47.477Z,16.87
2018-12-11T03:37:51.616Z,16.20
2018-12-11T03:47:55.771Z,14.00
2018-12-11T03:57:59.924Z,18.60
2018-12-11T04:08:04.183Z,17.90
2018-12-11T04:18:08.323Z,18.67
2018-12-11T04:28:12.483Z,21.67
2018-12-11T04:38:16.843Z,16.37
2018-12-11T04:48:20.934Z,16.20
2018-12-11T04:58:25.055Z,11.67
2018-12-11T05:08:29.146Z,13.80
2018-12-11T05:18:34.309Z,18.17
2018-12-11T05:28:38.397Z,14.73
2018-12-11T05:38:42.486Z,16.10
2018-12-11T05:48:46.647Z,15.37
2018-12-11T05:58:50.777Z,15.87
2018-12-11T06:08:54.879Z,15.50
2018-12-11T06:18:59.217Z,14.33
2018-12-11T06:29:03.920Z,18.23
2018-12-11T06:39:08.104Z,16.33
2018-12-11T06:49:12.319Z,22.43
2018-12-11T06:59:16.401Z,21.67
2018-12-11T07:09:20.518Z,19.00
2018-12-11T07:19:24.781Z,15.97
2018-12-11T07:29:29.008Z,17.57
2018-12-11T07:39:33.201Z,18.50
2018-12-11T07:49:37.555Z,25.60
2018-12-11T07:59:41.804Z,18.67
2018-12-11T08:09:46.075Z,17.60
2018-12-11T08:19:50.197Z,18.30
2018-12-11T08:29:54.403Z,17.60
2018-12-11T08:39:58.553Z,21.10
2018-12-11T08:50:02.713Z,19.30
2018-12-11T09:00:08.311Z,19.83
2018-12-11T09:10:12.463Z,17.47
2018-12-11T09:20:16.727Z,19.33
2018-12-11T09:30:21.074Z,21.37
2018-12-11T09:40:25.154Z,14.70
2018-12-11T09:50:29.287Z,14.93
2018-12-11T10:00:34.147Z,17.50
2018-12-11T10:10:38.411Z,17.03
2018-12-11T10:20:42.601Z,16.57
2018-12-11T10:30:48.131Z,17.10
2018-12-11T10:40:52.291Z,7.47
2018-12-11T10:50:56.661Z,10.67
2018-12-11T11:01:06.214Z,9.43
2018-12-11T11:11:11.621Z,7.37
2018-12-11T11:21:16.026Z,22.13
2018-12-11T11:31:20.101Z,10.23
2018-12-11T11:41:24.403Z,7.07
2018-12-11T11:51:28.914Z,9.93
2018-12-11T12:01:33.231Z,8.83
2018-12-11T12:11:37.502Z,13.80
2018-12-11T12:21:41.656Z,12.37
2018-12-11T12:31:46.884Z,15.00
2018-12-11T12:41:51.001Z,13.43
2018-12-11T12:51:55.146Z,12.07
2018-12-11T13:01:59.375Z,6.83
2018-12-11T13:12:03.606Z,9.57
2018-12-11T13:22:07.847Z,7.33
2018-12-11T13:32:11.986Z,7.40
2018-12-11T13:42:16.327Z,7.37
2018-12-11T13:52:20.712Z,7.40
2018-12-11T14:02:24.867Z,7.83
2018-12-11T14:12:29.072Z,9.77
2018-12-11T14:22:34.156Z,14.20
2018-12-11T14:32:38.552Z,11.13
2018-12-11T14:42:42.808Z,11.27
2018-12-11T14:52:47.143Z,11.60
2018-12-11T15:02:51.828Z,8.73
2018-12-11T15:12:56.198Z,8.80
2018-12-11T15:23:00.448Z,15.13
2018-12-11T15:33:04.763Z,11.73
2018-12-11T15:43:09.004Z,16.57
2018-12-11T15:53:13.295Z,14.43
2018-12-11T16:03:17.499Z,23.73
2018-12-11T16:13:22.177Z,26.33
2018-12-11T16:23:26.558Z,21.90
2018-12-11T16:33:30.797Z,24.97
2018-12-11T16:43:34.929Z,28.07
2018-12-11T16:53:39.194Z,27.83
2018-12-11T17:03:43.554Z,41.23
2018-12-11T17:13:47.904Z,142.83
2018-12-11T17:23:52.125Z,20.53
2018-12-11T17:33:56.320Z,27.07
2018-12-11T17:44:00.579Z,22.37
2018-12-11T17:54:04.724Z,31.60
2018-12-11T18:04:08.865Z,30.07
2018-12-11T18:14:13.035Z,56.07
2018-12-11T18:24:17.137Z,52.77
2018-12-11T18:56:41.249Z,54.47
2018-12-11T19:06:45.364Z,54.97
2018-12-11T19:16:49.859Z,57.43
2018-12-11T19:26:54.035Z,58.17
2018-12-11T19:36:59.178Z,56.33
2018-12-11T19:47:03.311Z,63.43
2018-12-11T19:57:07.373Z,65.73
2018-12-11T20:07:11.576Z,60.93
2018-12-11T20:17:15.655Z,66.60
2018-12-11T20:27:19.904Z,72.87
2018-12-11T20:37:23.941Z,79.43
2018-12-11T20:47:28.375Z,70.23
2018-12-11T20:57:33.780Z,68.40
2018-12-11T21:07:39.004Z,71.10
2018-12-11T21:17:43.130Z,57.43
2018-12-11T21:27:48.083Z,57.50
2018-12-11T21:37:52.318Z,67.23
2018-12-11T21:47:56.429Z,58.47
2018-12-11T21:58:00.591Z,55.20
2018-12-11T22:08:04.780Z,64.57
2018-12-11T22:18:08.909Z,60.70
2018-12-11T22:28:13.058Z,63.37
2018-12-11T22:38:17.132Z,57.67
2018-12-11T22:48:21.189Z,59.40
2018-12-11T22:58:25.289Z,58.30
2018-12-11T23:08:29.394Z,61.87
2018-12-11T23:18:33.521Z,56.23
2018-12-11T23:28:37.603Z,60.70
2018-12-11T23:38:41.889Z,49.07
2018-12-11T23:48:45.981Z,53.47
2018-12-11T23:58:50.139Z,51.87
